Gallatin Gateway, Montana
Current Conditions -  °F | °C
As of 10:56 AM on Sunday 21 Dec 2014 (Local Time) from KBZN Reporting Station
Overcast Overcast  
Wind Chill: 34°   Ceiling: 4600
Heat Index: 40°   Visibility: 10mi
Dew Point: 34°   Wind: 9mph
Humidity: 79%   Direction: 290°WNW
Pressure: 29.56"   Gusts: NA
Location:  45.59°N, 111.2°W
Report Text: KBZN 211756Z 29008KT 10SM SCT025 BKN046 OVC100 04/01 A2956 RMK AO2 RAB22E51 SLP026 P0003 60003 T00440011 10061 20028 51017
Loading
Personal Weather Stations






























Interactive Weather Map New forecast layout! Learn more

10-Day Weather Forecast

Advertisements
Track Severe Weather on mobile